Whitingham, VT (05361)

11:02 PM EST on December 24, 2014 (GMT -0500)
South of the Village | Change Station
CLOSE
Current Station
Personal Weather Station
Location: Jacksonville, VT
Elevation: 1545 ft
Nearby Weather Stations
Active Advisory: Areal Flood Watch

Elev 1545 ft 42.76 °N, 72.81 °W | Updated 2 minutes ago

Overcast
Overcast
37.4 °F
Feels Like 37 °F
N
0.0
Wind Variable Wind from North
Gusts 0.0 mph

Today
High -- | Low -- °F
--% Chance of Precip.
Yesterday
High -- | Low -- °F
Precip. -- in
7:20 AM 4:22 PM
Waxing Crescent, 13% visible
Pressure 29.52 in
Visibility 10.0 miles
Clouds Overcast 2000 ft
Windchill 37 °F
Dew Point 37 °F
Humidity 97%
Rainfall 0.56 in
Snow Depth Not available.
UV 0 out of 12
Pollen .10 out of 12
Air Quality Not available.
Flu Activity Not available.
METAR KAQW 250352Z AUTO 08008G17KT 10SM OVC020 11/09 A2951 RMK AO2 SLP996 T01060089

More Conditions Fewer Conditions

Pressure 29.52 in
Visibility 10.0 miles
Clouds Overcast 2000 ft
Windchill 37 °F
Dew Point 37 °F
Humidity 97%
Rainfall 0.56 in
Snow Depth Not available.
UV 0 out of 12
Pollen .10 out of 12
Air Quality Not available.
Flu Activity Not available.
METAR KAQW 250352Z AUTO 08008G17KT 10SM OVC020 11/09 A2951 RMK AO2 SLP996 T01060089

More Conditions Fewer Conditions

10-Day Weather Forecast

Almanac

Astronomy

Dec. 24, 2014 Rise Set
Actual Time
Civil Twilight
Nautical Twilight
Astronomical Twilight
Moon
Length of Visible Light
Length of Day
Tomorrow will be .
, % of the Moon is Illuminated

Today's Extremes

State Highs State Lows

Community

WunderPhotos

Upload Photos

1,780,226 photos uploaded!

WunderBlogs® & News

Nearby

Air Quality

  Air Quality AQ Index Pollutant
Not available.

Snow Depth

Station Depth Elevation

Earthquake Activity

City Distance Mag. Time & Date
Minimum magnitude displayed is 2.5.

Coastal Water Temperatures

Place Temperature

Nearby Weather Stations